This is the latest recevied weather packets stored in our database for station/object AG1T-1. If no packets are shown the sender has not sent any weather packets the latest 10 day(s).
| Time | Temp. | Humidity | Pressure | Rain* | Wind** | Luminosity | Snow |
|---|---|---|---|---|---|---|---|
| 1777803603 | 5.56° C | 66% | 1020.5 hPa | 0 mm | - | 0 W/m² | - |
| 1777803003 | 6.11° C | 64% | 1020.5 hPa | 0 mm | - | 0 W/m² | - |
| 1777802403 | 5.56° C | 66% | 1020.3 hPa | 0 mm | - | 0 W/m² | - |
| 1777801803 | 5.56° C | 68% | 1020.4 hPa | 0 mm | - | 0 W/m² | - |
| 1777801203 | 5.56° C | 67% | 1020.3 hPa | 0 mm | - | 0 W/m² | - |
| 1777800603 | 6.11° C | 66% | 1020.2 hPa | 0 mm | - | 0 W/m² | - |
| 1777800003 | 6.11° C | 66% | 1020.1 hPa | 0 mm | - | 0 W/m² | - |
| 1777799403 | 6.11° C | 65% | 1020.1 hPa | 0 mm | - | 0 W/m² | - |
| 1777798803 | 6.11° C | 65% | 1020.2 hPa | 0 mm | - | 0 W/m² | - |
| 1777798203 | 6.11° C | 66% | 1020.2 hPa | 0 mm | - | 0 W/m² | - |
| 1777797603 | 6.11° C | 65% | 1020.2 hPa | 0 mm | - | 0 W/m² | - |
| 1777797003 | 6.11° C | 65% | 1020.2 hPa | 0 mm | - | 0 W/m² | - |
| 1777796403 | 6.67° C | 66% | 1020.2 hPa | 0 mm | - | 0 W/m² | - |
| 1777795803 | 6.67° C | 65% | 1020.3 hPa | 0 mm | - | 0 W/m² | - |
| 1777795203 | 6.67° C | 65% | 1020.3 hPa | 0 mm | - | 0 W/m² | - |
| 1777794603 | 7.22° C | 66% | 1020.4 hPa | 0 mm | - | 0 W/m² | - |
| 1777794003 | 7.22° C | 65% | 1020.3 hPa | 0 mm | - | 0 W/m² | - |
| 1777793403 | 7.22° C | 62% | 1020.4 hPa | 0 mm | - | 0 W/m² | - |
| 1777792803 | 7.22° C | 61% | 1020.5 hPa | 0 mm | - | 0 W/m² | - |
| 1777792203 | 7.78° C | 60% | 1020.4 hPa | 0 mm | - | 0 W/m² | - |
| 1777791603 | 8.33° C | 57% | 1020.4 hPa | 0 mm | - | 0 W/m² | - |
| 1777791003 | 8.89° C | 55% | 1020.3 hPa | 0 mm | - | 0 W/m² | - |
| 1777790403 | 10° C | 49% | 1020.2 hPa | 0 mm | - | 0 W/m² | - |
| 1777789803 | 10° C | 45% | 1020.2 hPa | 0 mm | - | 0 W/m² | - |
| 1777789203 | 10.56° C | 44% | 1020.2 hPa | 0 mm | - | 0 W/m² | - |
* Rain latest hour (hover to see other rain measurements)
** Current wind speed in m/s (hover to see current wind gust speed)